Time;durP1;ratioP1;P1;durP2;ratioP2;P2;SDS_P1;SDS_P2;PMS_P1;PMS_P2;Temp;Humidity;BMP_temperature;BMP_pressure;BME280_temperature;BME280_humidity;BME280_pressure;Samples;Min_cycle;Max_cycle;Signal;HPM_P1;HPM_P2
2023/11/05 00:00:10;;;;;;;0.30;0.30;;;;;;;;;;4982243;28;20045;-95
2023/11/05 00:02:36;;;;;;;0.10;0.10;;;;;;;;;;4987949;28;20042;-92
2023/11/05 00:05:02;;;;;;;0.10;0.10;;;;;;;;;;4998505;28;20041;-93
2023/11/05 00:07:28;;;;;;;0.10;0.10;;;;;;;;;;4984036;28;20075;-94
2023/11/05 00:09:57;;;;;;;0.10;0.10;;;;;;;;;;4999007;28;20076;-95
2023/11/05 00:12:26;;;;;;;0.10;0.10;;;;;;;;;;4983776;28;20117;-94
2023/11/05 00:14:53;;;;;;;0.10;0.10;;;;;;;;;;4987300;28;20069;-95
2023/11/05 00:17:20;;;;;;;0.20;0.20;;;;;;;;;;5000989;28;20048;-93
2023/11/05 00:19:46;;;;;;;0.20;0.20;;;;;;;;;;4984736;28;20033;-92
2023/11/05 00:22:14;;;;;;;0.10;0.10;;;;;;;;;;4998617;28;20111;-93
2023/11/05 00:24:40;;;;;;;0.10;0.10;;;;;;;;;;4998842;28;20473;-92
2023/11/05 00:27:09;;;;;;;0.10;0.10;;;;;;;;;;4982353;28;20045;-93
2023/11/05 00:29:35;;;;;;;0.10;0.10;;;;;;;;;;4998244;28;20038;-93
2023/11/05 00:32:07;;;;;;;0.10;0.10;;;;;;;;;;4982046;28;20114;-96
2023/11/05 00:34:36;;;;;;;0.10;0.10;;;;;;;;;;5014143;28;20052;-92
2023/11/05 00:37:02;;;;;;;0.10;0.10;;;;;;;;;;4985305;28;20046;-88
2023/11/05 00:39:28;;;;;;;0.10;0.10;;;;;;;;;;5002078;28;20045;-92
2023/11/05 00:41:59;;;;;;;0.10;0.10;;;;;;;;;;5001734;28;20045;-94
2023/11/05 00:44:26;;;;;;;0.10;0.10;;;;;;;;;;5002174;28;20164;-93
2023/11/05 00:46:52;;;;;;;0.10;0.10;;;;;;;;;;5017523;28;20041;-93
2023/11/05 00:49:18;;;;;;;0.10;0.10;;;;;;;;;;5001472;28;20045;-93
2023/11/05 00:51:47;;;;;;;0.10;0.10;;;;;;;;;;5017486;28;20038;-93
2023/11/05 00:54:22;;;;;;;0.10;0.10;;;;;;;;;;4989425;28;20493;-94
2023/11/05 00:56:48;;;;;;;1.05;1.05;;;;;;;;;;4985830;28;20059;-93
2023/11/05 00:59:14;;;;;;;0.10;0.10;;;;;;;;;;5001235;28;20037;-93
2023/11/05 01:01:40;;;;;;;0.10;0.10;;;;;;;;;;4984940;28;20382;-94
2023/11/05 01:04:09;;;;;;;0.10;0.10;;;;;;;;;;5017624;28;20045;-94
2023/11/05 01:06:38;;;;;;;0.10;0.10;;;;;;;;;;5001536;28;20052;-93
2023/11/05 01:09:05;;;;;;;0.10;0.10;;;;;;;;;;5001243;28;20045;-94
2023/11/05 01:11:34;;;;;;;0.10;0.10;;;;;;;;;;4985435;28;20076;-94
2023/11/05 01:14:00;;;;;;;0.10;0.10;;;;;;;;;;4985386;28;20044;-93
2023/11/05 01:16:26;;;;;;;0.40;0.40;;;;;;;;;;4984811;28;20049;-93
2023/11/05 01:18:53;;;;;;;0.10;0.10;;;;;;;;;;4985057;28;20033;-95
2023/11/05 01:21:19;;;;;;;0.10;0.10;;;;;;;;;;5001502;28;20049;-93
2023/11/05 01:23:46;;;;;;;0.10;0.10;;;;;;;;;;5000901;28;20049;-92
2023/11/05 01:26:12;;;;;;;0.10;0.10;;;;;;;;;;5016720;28;20072;-93
2023/11/05 01:28:38;;;;;;;0.10;0.10;;;;;;;;;;5000716;28;20502;-93
2023/11/05 01:31:04;;;;;;;0.10;0.10;;;;;;;;;;5000827;28;20049;-93
2023/11/05 01:33:30;;;;;;;0.10;0.10;;;;;;;;;;4984294;28;20041;-93
2023/11/05 01:35:56;;;;;;;0.10;0.10;;;;;;;;;;4984547;28;20037;-93
2023/11/05 01:38:22;;;;;;;0.10;0.10;;;;;;;;;;5000467;28;20034;-92
2023/11/05 01:40:48;;;;;;;0.10;0.10;;;;;;;;;;4984174;28;20120;-94
2023/11/05 01:43:15;;;;;;;0.10;0.10;;;;;;;;;;5000362;28;20112;-92
2023/11/05 01:45:41;;;;;;;0.10;0.10;;;;;;;;;;5000440;28;20436;-93
2023/11/05 01:48:07;;;;;;;0.10;0.10;;;;;;;;;;4983532;28;20057;-93
2023/11/05 01:50:33;;;;;;;0.10;0.10;;;;;;;;;;5000010;28;20464;-93
2023/11/05 01:53:00;;;;;;;0.10;0.10;;;;;;;;;;4984570;28;20037;-93
2023/11/05 01:55:26;;;;;;;0.10;0.10;;;;;;;;;;4986516;28;20048;-93
2023/11/05 01:57:53;;;;;;;0.10;0.10;;;;;;;;;;4984297;28;20038;-93
2023/11/05 02:00:20;;;;;;;0.10;0.10;;;;;;;;;;4984094;28;20045;-93
2023/11/05 02:02:47;;;;;;;0.10;0.10;;;;;;;;;;5000039;28;20049;-92
2023/11/05 02:05:15;;;;;;;0.10;0.10;;;;;;;;;;4999931;28;20041;-93
2023/11/05 02:07:41;;;;;;;0.10;0.10;;;;;;;;;;4999954;28;20063;-93
2023/11/05 02:10:07;;;;;;;0.20;0.20;;;;;;;;;;5015698;28;20485;-93
2023/11/05 02:12:33;;;;;;;0.10;0.10;;;;;;;;;;4983470;28;20043;-94
2023/11/05 02:14:59;;;;;;;0.10;0.10;;;;;;;;;;5015558;28;20068;-93
2023/11/05 02:17:25;;;;;;;0.10;0.10;;;;;;;;;;5015881;28;20046;-93
2023/11/05 02:19:54;;;;;;;0.10;0.10;;;;;;;;;;4999540;28;20081;-92
2023/11/05 02:22:20;;;;;;;0.10;0.10;;;;;;;;;;4984126;28;20041;-93
2023/11/05 02:24:46;;;;;;;0.10;0.10;;;;;;;;;;4983196;28;20478;-92
2023/11/05 02:27:12;;;;;;;0.10;0.10;;;;;;;;;;4983289;28;20055;-94
2023/11/05 02:29:38;;;;;;;0.10;0.10;;;;;;;;;;4983137;28;20098;-93
2023/11/05 02:32:07;;;;;;;0.10;0.10;;;;;;;;;;4983147;28;20378;-94
2023/11/05 02:34:33;;;;;;;0.10;0.10;;;;;;;;;;4999646;28;20041;-95
2023/11/05 02:37:00;;;;;;;0.20;0.20;;;;;;;;;;5015895;28;20519;-95
2023/11/05 02:39:26;;;;;;;0.10;0.10;;;;;;;;;;4999382;28;20084;-91
2023/11/05 02:41:52;;;;;;;0.10;0.10;;;;;;;;;;4983472;28;20111;-91
2023/11/05 02:44:18;;;;;;;0.10;0.10;;;;;;;;;;4999437;28;20049;-93
2023/11/05 02:46:44;;;;;;;0.10;0.10;;;;;;;;;;4983368;28;20045;-94
2023/11/05 02:49:12;;;;;;;0.10;0.10;;;;;;;;;;4983499;28;20409;-94
2023/11/05 02:51:40;;;;;;;0.10;0.10;;;;;;;;;;4983174;28;20045;-94
2023/11/05 02:54:09;;;;;;;0.20;0.20;;;;;;;;;;4999781;28;20456;-94
2023/11/05 02:56:35;;;;;;;0.10;0.10;;;;;;;;;;4999605;28;20045;-94
2023/11/05 02:59:01;;;;;;;0.10;0.10;;;;;;;;;;4982623;28;20107;-93
2023/11/05 03:01:30;;;;;;;0.10;0.10;;;;;;;;;;5000426;28;20378;-96
2023/11/05 03:03:56;;;;;;;0.80;0.40;;;;;;;;;;5000849;28;20128;-93
2023/11/05 03:06:22;;;;;;;0.10;0.10;;;;;;;;;;4987414;28;20045;-93
2023/11/05 03:08:48;;;;;;;0.10;0.10;;;;;;;;;;4979470;28;20052;-93
2023/11/05 03:11:17;;;;;;;0.10;0.10;;;;;;;;;;4979578;28;20108;-94
2023/11/05 03:13:43;;;;;;;0.20;0.20;;;;;;;;;;4963845;28;20042;-93
2023/11/05 03:16:11;;;;;;;0.10;0.10;;;;;;;;;;4979145;28;20120;-91
2023/11/05 03:18:38;;;;;;;0.10;0.10;;;;;;;;;;4995292;28;20054;-92
2023/11/05 03:21:05;;;;;;;0.10;0.10;;;;;;;;;;4978929;28;20042;-93
2023/11/05 03:23:31;;;;;;;0.10;0.10;;;;;;;;;;4995449;28;20064;-92
2023/11/05 03:25:57;;;;;;;0.10;0.10;;;;;;;;;;4995040;28;20488;-92
2023/11/05 03:28:23;;;;;;;0.10;0.10;;;;;;;;;;4995132;28;20128;-92
2023/11/05 03:30:49;;;;;;;0.10;0.10;;;;;;;;;;4962798;28;20124;-92
2023/11/05 03:33:15;;;;;;;0.10;0.10;;;;;;;;;;4994978;28;20038;-92
2023/11/05 03:35:41;;;;;;;0.10;0.10;;;;;;;;;;4962967;28;20564;-92
2023/11/05 03:38:07;;;;;;;0.10;0.10;;;;;;;;;;4978888;28;20037;-92
2023/11/05 03:40:33;;;;;;;0.10;0.10;;;;;;;;;;4978566;28;20042;-93
2023/11/05 03:42:59;;;;;;;0.10;0.10;;;;;;;;;;4978801;28;20042;-88
2023/11/05 03:45:25;;;;;;;0.10;0.10;;;;;;;;;;4962989;28;20135;-94
2023/11/05 03:47:53;;;;;;;0.10;0.10;;;;;;;;;;4963291;28;20054;-93
2023/11/05 03:50:19;;;;;;;0.10;0.10;;;;;;;;;;4963029;28;20551;-91
2023/11/05 03:52:45;;;;;;;0.15;0.15;;;;;;;;;;4978758;28;20048;-92
2023/11/05 03:55:11;;;;;;;0.10;0.10;;;;;;;;;;4978629;28;20055;-91
2023/11/05 03:57:38;;;;;;;0.10;0.10;;;;;;;;;;4978709;28;20100;-92
2023/11/05 04:00:05;;;;;;;0.10;0.10;;;;;;;;;;4962992;28;20041;-93
2023/11/05 04:02:31;;;;;;;2.35;0.75;;;;;;;;;;4962868;28;20100;-93
2023/11/05 04:04:57;;;;;;;0.10;0.10;;;;;;;;;;4994860;28;20033;-92
2023/11/05 04:07:23;;;;;;;0.10;0.10;;;;;;;;;;4964696;28;20042;-91
2023/11/05 04:09:49;;;;;;;0.10;0.10;;;;;;;;;;4978972;28;20116;-92
2023/11/05 04:12:15;;;;;;;0.10;0.10;;;;;;;;;;4998712;28;20476;-93
2023/11/05 04:14:43;;;;;;;1.08;0.63;;;;;;;;;;4982193;28;20108;-92
2023/11/05 04:17:09;;;;;;;0.10;0.10;;;;;;;;;;4982471;28;20046;-92
2023/11/05 04:19:35;;;;;;;0.20;0.20;;;;;;;;;;4966400;28;20041;-93
2023/11/05 04:22:01;;;;;;;0.10;0.10;;;;;;;;;;4982316;28;20048;-93
2023/11/05 04:24:27;;;;;;;0.10;0.10;;;;;;;;;;4981987;28;20054;-92
2023/11/05 04:26:53;;;;;;;0.10;0.10;;;;;;;;;;4982317;28;20507;-93
2023/11/05 04:29:22;;;;;;;0.10;0.10;;;;;;;;;;4966099;28;20284;-93
2023/11/05 04:31:48;;;;;;;0.20;0.20;;;;;;;;;;4981853;28;20053;-93
2023/11/05 04:34:17;;;;;;;0.10;0.10;;;;;;;;;;4966068;28;20096;-93
2023/11/05 04:36:43;;;;;;;0.10;0.10;;;;;;;;;;4982050;28;20042;-91
2023/11/05 04:39:09;;;;;;;0.10;0.10;;;;;;;;;;4982217;28;20192;-92
2023/11/05 04:41:35;;;;;;;0.10;0.10;;;;;;;;;;4982116;28;20611;-94
2023/11/05 04:44:01;;;;;;;0.10;0.10;;;;;;;;;;4966217;28;20044;-94
2023/11/05 04:46:27;;;;;;;0.20;0.20;;;;;;;;;;4982580;28;20132;-94
2023/11/05 04:48:56;;;;;;;0.10;0.10;;;;;;;;;;4982344;28;20110;-94
2023/11/05 04:51:25;;;;;;;0.10;0.10;;;;;;;;;;4981783;28;20038;-94
2023/11/05 04:53:51;;;;;;;0.10;0.10;;;;;;;;;;4966360;28;20041;-93
2023/11/05 04:56:19;;;;;;;0.10;0.10;;;;;;;;;;4982140;28;20034;-94
2023/11/05 04:58:47;;;;;;;0.10;0.10;;;;;;;;;;4996822;28;20046;-93
2023/11/05 05:01:13;;;;;;;0.10;0.10;;;;;;;;;;4982253;28;20049;-93
2023/11/05 05:03:39;;;;;;;0.10;0.10;;;;;;;;;;4981625;28;20041;-92
2023/11/05 05:06:05;;;;;;;0.10;0.10;;;;;;;;;;4964692;28;20042;-91
2023/11/05 05:08:31;;;;;;;0.10;0.10;;;;;;;;;;4981128;28;20044;-92
2023/11/05 05:10:57;;;;;;;0.10;0.10;;;;;;;;;;4964777;28;20049;-92
2023/11/05 05:13:23;;;;;;;0.10;0.10;;;;;;;;;;4980933;28;20041;-91
2023/11/05 05:15:49;;;;;;;0.10;0.10;;;;;;;;;;4980584;28;20053;-91
2023/11/05 05:18:16;;;;;;;0.10;0.10;;;;;;;;;;4980734;28;20042;-91
2023/11/05 05:20:42;;;;;;;0.10;0.10;;;;;;;;;;4996795;28;20129;-90
2023/11/05 05:23:08;;;;;;;0.10;0.10;;;;;;;;;;4981131;28;20068;-91
2023/11/05 05:25:34;;;;;;;0.10;0.10;;;;;;;;;;4964680;28;20038;-91
2023/11/05 05:28:00;;;;;;;0.10;0.10;;;;;;;;;;4980876;28;20049;-91
2023/11/05 05:30:26;;;;;;;0.10;0.10;;;;;;;;;;4996511;28;20064;-92
2023/11/05 05:32:53;;;;;;;0.10;0.10;;;;;;;;;;4980393;28;20038;-91
2023/11/05 05:35:19;;;;;;;4.80;0.20;;;;;;;;;;4980619;28;20042;-91
2023/11/05 05:37:45;;;;;;;0.10;0.10;;;;;;;;;;4980346;28;20049;-91
2023/11/05 05:40:11;;;;;;;0.10;0.10;;;;;;;;;;4980737;28;20041;-92
2023/11/05 05:42:37;;;;;;;0.22;0.20;;;;;;;;;;4964310;28;20042;-92
2023/11/05 05:45:04;;;;;;;0.10;0.10;;;;;;;;;;4980806;28;20395;-91
2023/11/05 05:47:30;;;;;;;0.10;0.10;;;;;;;;;;4964196;28;20042;-91
2023/11/05 05:49:56;;;;;;;0.10;0.10;;;;;;;;;;4964534;28;20129;-91
2023/11/05 05:52:23;;;;;;;0.10;0.10;;;;;;;;;;4980436;28;20531;-93
2023/11/05 05:54:49;;;;;;;0.10;0.10;;;;;;;;;;4964280;28;20038;-92
2023/11/05 05:57:15;;;;;;;0.10;0.10;;;;;;;;;;4964446;28;20125;-92
2023/11/05 05:59:40;;;;;;;0.10;0.10;;;;;;;;;;4963877;28;20152;-90
2023/11/05 06:02:07;;;;;;;0.30;0.30;;;;;;;;;;4995947;28;20545;-91
2023/11/05 06:04:34;;;;;;;0.10;0.10;;;;;;;;;;4980093;28;20096;-90
2023/11/05 06:07:00;;;;;;;0.10;0.10;;;;;;;;;;4979747;28;20096;-90
2023/11/05 06:09:26;;;;;;;0.10;0.10;;;;;;;;;;4963580;28;20515;-90
2023/11/05 06:11:52;;;;;;;0.10;0.10;;;;;;;;;;4979641;28;20488;-91
2023/11/05 06:14:18;;;;;;;0.10;0.10;;;;;;;;;;4979653;28;20404;-91
2023/11/05 06:16:44;;;;;;;0.10;0.10;;;;;;;;;;4979545;28;20042;-90
2023/11/05 06:19:10;;;;;;;0.10;0.10;;;;;;;;;;4979359;28;20092;-91
2023/11/05 06:21:36;;;;;;;0.10;0.10;;;;;;;;;;4979930;28;20132;-90
2023/11/05 06:24:03;;;;;;;0.10;0.10;;;;;;;;;;4995801;28;20038;-90
2023/11/05 06:26:29;;;;;;;0.10;0.10;;;;;;;;;;4979416;28;20052;-90
2023/11/05 06:28:55;;;;;;;0.10;0.10;;;;;;;;;;4979302;28;20034;-91
2023/11/05 06:31:21;;;;;;;0.10;0.10;;;;;;;;;;4964824;28;20037;-92
2023/11/05 06:33:47;;;;;;;0.10;0.10;;;;;;;;;;4981595;28;20493;-92
2023/11/05 06:36:13;;;;;;;0.10;0.10;;;;;;;;;;4963721;28;20149;-91
2023/11/05 06:38:40;;;;;;;0.20;0.20;;;;;;;;;;4979576;28;20084;-89
2023/11/05 06:41:06;;;;;;;0.10;0.10;;;;;;;;;;4980025;28;20437;-92
2023/11/05 06:43:32;;;;;;;0.10;0.10;;;;;;;;;;4979371;28;20484;-90
2023/11/05 06:45:58;;;;;;;0.10;0.10;;;;;;;;;;4995021;28;20054;-90
2023/11/05 06:48:24;;;;;;;0.10;0.10;;;;;;;;;;4979275;28;20385;-89
2023/11/05 06:50:50;;;;;;;0.10;0.10;;;;;;;;;;4978843;28;20272;-89
2023/11/05 06:53:16;;;;;;;0.10;0.10;;;;;;;;;;4978958;28;20045;-87
2023/11/05 06:55:42;;;;;;;0.10;0.10;;;;;;;;;;4978752;28;20041;-86
2023/11/05 06:58:09;;;;;;;0.10;0.10;;;;;;;;;;4978935;28;20092;-87
2023/11/05 07:00:35;;;;;;;0.10;0.10;;;;;;;;;;4963118;28;20464;-92
2023/11/05 07:03:02;;;;;;;0.10;0.10;;;;;;;;;;4963207;28;20038;-89
2023/11/05 07:05:28;;;;;;;0.10;0.10;;;;;;;;;;4962895;28;20042;-89
2023/11/05 07:07:55;;;;;;;0.10;0.10;;;;;;;;;;4979104;28;20045;-89
2023/11/05 07:10:21;;;;;;;0.10;0.10;;;;;;;;;;4978751;28;20049;-89
2023/11/05 07:12:47;;;;;;;0.10;0.10;;;;;;;;;;4962747;28;20510;-89
2023/11/05 07:15:13;;;;;;;0.10;0.10;;;;;;;;;;4962533;28;20058;-88
2023/11/05 07:17:39;;;;;;;0.10;0.10;;;;;;;;;;4962844;28;20125;-88
2023/11/05 07:20:06;;;;;;;0.10;0.10;;;;;;;;;;4994762;28;20141;-88
2023/11/05 07:22:32;;;;;;;0.20;0.20;;;;;;;;;;4962686;28;20042;-88
2023/11/05 07:24:58;;;;;;;0.10;0.10;;;;;;;;;;4978715;28;20046;-88
2023/11/05 07:27:24;;;;;;;0.10;0.10;;;;;;;;;;4978712;28;20042;-88
2023/11/05 07:29:50;;;;;;;0.20;0.20;;;;;;;;;;4978535;28;20042;-88
2023/11/05 07:32:17;;;;;;;0.10;0.10;;;;;;;;;;4962398;28;20045;-88
2023/11/05 07:34:43;;;;;;;0.10;0.10;;;;;;;;;;4994637;28;20120;-89
2023/11/05 07:37:09;;;;;;;0.10;0.10;;;;;;;;;;4978490;28;20172;-88
2023/11/05 07:39:35;;;;;;;0.10;0.10;;;;;;;;;;4962530;28;20133;-88
2023/11/05 07:42:01;;;;;;;0.10;0.10;;;;;;;;;;4994275;28;20133;-88
2023/11/05 07:44:27;;;;;;;0.10;0.10;;;;;;;;;;4994726;28;20568;-88
2023/11/05 07:46:53;;;;;;;0.10;0.10;;;;;;;;;;4982548;28;20053;-88
2023/11/05 07:49:19;;;;;;;0.10;0.10;;;;;;;;;;4966516;28;20520;-88
2023/11/05 07:51:45;;;;;;;0.10;0.10;;;;;;;;;;4982359;28;20048;-88
2023/11/05 07:54:11;;;;;;;0.10;0.10;;;;;;;;;;4982503;28;20397;-88
2023/11/05 07:56:37;;;;;;;0.25;0.20;;;;;;;;;;4982455;28;20131;-88
2023/11/05 07:59:03;;;;;;;0.10;0.10;;;;;;;;;;4982239;28;20045;-89
2023/11/05 08:01:29;;;;;;;0.10;0.10;;;;;;;;;;4965994;28;20484;-88
2023/11/05 08:03:55;;;;;;;0.10;0.10;;;;;;;;;;4982197;28;20042;-90
2023/11/05 08:06:21;;;;;;;0.10;0.10;;;;;;;;;;4998242;28;20048;-89
2023/11/05 08:08:47;;;;;;;0.10;0.10;;;;;;;;;;4981939;28;20049;-90
2023/11/05 08:11:13;;;;;;;0.10;0.10;;;;;;;;;;4966192;28;20108;-89
2023/11/05 08:13:41;;;;;;;0.10;0.10;;;;;;;;;;4965815;28;20042;-89
2023/11/05 08:16:07;;;;;;;0.17;0.17;;;;;;;;;;5014433;28;20061;-89
2023/11/05 08:18:34;;;;;;;0.10;0.10;;;;;;;;;;4981914;28;20053;-89
2023/11/05 08:21:00;;;;;;;0.10;0.10;;;;;;;;;;4982031;28;20133;-88
2023/11/05 08:23:26;;;;;;;0.20;0.20;;;;;;;;;;4981765;28;20092;-89
2023/11/05 08:25:52;;;;;;;0.10;0.10;;;;;;;;;;4997771;28;20500;-89
2023/11/05 08:28:18;;;;;;;0.13;0.13;;;;;;;;;;4981646;28;20134;-89
2023/11/05 08:30:44;;;;;;;0.10;0.10;;;;;;;;;;4965711;28;20046;-89
2023/11/05 08:33:11;;;;;;;0.10;0.10;;;;;;;;;;4981532;28;20090;-89
2023/11/05 08:35:38;;;;;;;0.43;0.20;;;;;;;;;;4981922;28;20149;-89
2023/11/05 08:38:04;;;;;;;0.10;0.10;;;;;;;;;;4981552;28;20053;-89
2023/11/05 08:40:30;;;;;;;0.10;0.10;;;;;;;;;;4965334;28;20069;-90
2023/11/05 08:42:56;;;;;;;0.10;0.10;;;;;;;;;;4965794;28;20044;-91
2023/11/05 08:45:22;;;;;;;0.10;0.10;;;;;;;;;;4965643;28;20092;-89
2023/11/05 08:47:48;;;;;;;0.10;0.10;;;;;;;;;;4997902;28;20108;-93
2023/11/05 08:50:14;;;;;;;0.10;0.10;;;;;;;;;;4997789;28;20046;-89
2023/11/05 08:52:39;;;;;;;0.10;0.10;;;;;;;;;;4981385;28;20041;-88
2023/11/05 08:55:10;;;;;;;0.10;0.10;;;;;;;;;;4997502;28;20038;-90
2023/11/05 08:57:37;;;;;;;0.10;0.10;;;;;;;;;;5014498;28;20038;-92
2023/11/05 09:00:09;;;;;;;0.10;0.10;;;;;;;;;;4966428;28;20042;-91
2023/11/05 09:02:35;;;;;;;0.25;0.25;;;;;;;;;;4966281;28;20128;-91
2023/11/05 09:05:01;;;;;;;0.10;0.10;;;;;;;;;;4981328;28;20042;-91
2023/11/05 09:07:27;;;;;;;0.17;0.17;;;;;;;;;;4997447;28;20393;-90
2023/11/05 09:09:53;;;;;;;0.10;0.10;;;;;;;;;;4965125;28;20034;-90
2023/11/05 09:12:19;;;;;;;0.10;0.10;;;;;;;;;;4981466;28;20177;-92
2023/11/05 09:14:46;;;;;;;0.10;0.10;;;;;;;;;;4981120;28;20058;-91
2023/11/05 09:17:12;;;;;;;0.10;0.10;;;;;;;;;;4997293;28;20053;-91
2023/11/05 09:19:38;;;;;;;0.20;0.20;;;;;;;;;;5014978;28;20128;-90
2023/11/05 09:22:04;;;;;;;0.10;0.10;;;;;;;;;;4997128;28;20042;-89
2023/11/05 09:24:30;;;;;;;0.10;0.10;;;;;;;;;;4996921;28;20395;-90
2023/11/05 09:26:56;;;;;;;0.10;0.10;;;;;;;;;;4980792;28;20095;-88
2023/11/05 09:29:22;;;;;;;0.10;0.10;;;;;;;;;;4996673;28;20475;-88
2023/11/05 09:31:49;;;;;;;0.10;0.10;;;;;;;;;;4980393;28;20050;-90
2023/11/05 09:34:15;;;;;;;0.10;0.10;;;;;;;;;;4980685;28;20037;-90
2023/11/05 09:36:41;;;;;;;0.10;0.10;;;;;;;;;;4996370;28;20544;-89
2023/11/05 09:39:07;;;;;;;0.10;0.10;;;;;;;;;;4980488;28;20045;-90
2023/11/05 09:41:36;;;;;;;0.20;0.20;;;;;;;;;;4964550;28;20132;-89
2023/11/05 09:44:03;;;;;;;0.10;0.10;;;;;;;;;;4980699;28;20539;-89
2023/11/05 09:46:29;;;;;;;0.10;0.10;;;;;;;;;;4980541;28;20500;-90
2023/11/05 09:48:56;;;;;;;0.10;0.10;;;;;;;;;;4980352;28;20053;-91
2023/11/05 09:51:22;;;;;;;0.10;0.10;;;;;;;;;;4980263;28;20460;-89
2023/11/05 09:53:48;;;;;;;0.10;0.10;;;;;;;;;;4996391;28;20133;-87
2023/11/05 09:56:14;;;;;;;0.10;0.10;;;;;;;;;;4996365;28;20049;-86
2023/11/05 09:58:40;;;;;;;0.10;0.10;;;;;;;;;;4980013;28;20489;-86
2023/11/05 10:01:08;;;;;;;0.10;0.10;;;;;;;;;;4980027;28;20538;-86
2023/11/05 10:03:34;;;;;;;0.10;0.10;;;;;;;;;;4980004;28;20485;-87
2023/11/05 10:06:00;;;;;;;0.10;0.10;;;;;;;;;;4979765;28;20068;-87
2023/11/05 10:08:26;;;;;;;0.10;0.10;;;;;;;;;;4979485;28;20042;-87
2023/11/05 10:10:57;;;;;;;0.20;0.20;;;;;;;;;;4995420;28;20144;-88
2023/11/05 10:13:26;;;;;;;0.10;0.10;;;;;;;;;;4979714;28;20127;-87
2023/11/05 10:15:52;;;;;;;0.10;0.10;;;;;;;;;;4979525;28;20062;-89
2023/11/05 10:18:18;;;;;;;0.20;0.20;;;;;;;;;;4979677;28;20068;-87
2023/11/05 10:20:52;;;;;;;0.10;0.10;;;;;;;;;;4979462;28;20053;-87
2023/11/05 10:23:19;;;;;;;0.10;0.10;;;;;;;;;;4979513;28;20052;-87
2023/11/05 10:25:48;;;;;;;0.10;0.10;;;;;;;;;;4979528;28;20049;-87
2023/11/05 10:28:16;;;;;;;0.20;0.20;;;;;;;;;;4979464;28;20076;-87
2023/11/05 10:30:42;;;;;;;0.20;0.20;;;;;;;;;;4963408;28;20422;-87
2023/11/05 10:33:12;;;;;;;0.10;0.10;;;;;;;;;;4963267;28;20132;-88
2023/11/05 10:35:38;;;;;;;0.10;0.10;;;;;;;;;;4966493;28;20045;-91
2023/11/05 10:38:04;;;;;;;0.10;0.10;;;;;;;;;;4979448;28;20080;-89
2023/11/05 10:40:30;;;;;;;0.10;0.10;;;;;;;;;;4995524;28;20073;-90
2023/11/05 10:42:56;;;;;;;0.10;0.10;;;;;;;;;;4963228;28;20507;-87
2023/11/05 10:45:22;;;;;;;0.10;0.10;;;;;;;;;;4995413;28;20038;-87
2023/11/05 10:47:51;;;;;;;0.10;0.10;;;;;;;;;;4979270;28;20128;-88
2023/11/05 10:50:19;;;;;;;0.10;0.10;;;;;;;;;;4963991;28;20046;-88
2023/11/05 10:52:45;;;;;;;0.10;0.10;;;;;;;;;;4979662;28;20053;-87
2023/11/05 10:55:11;;;;;;;0.10;0.10;;;;;;;;;;4963193;28;20473;-87
2023/11/05 10:57:50;;;;;;;0.10;0.10;;;;;;;;;;4979033;28;20042;-87
2023/11/05 11:00:16;;;;;;;0.10;0.10;;;;;;;;;;4978853;28;20139;-87
2023/11/05 11:02:42;;;;;;;0.10;0.10;;;;;;;;;;4994917;28;20452;-87
2023/11/05 11:05:09;;;;;;;0.10;0.10;;;;;;;;;;4994929;28;20129;-88
2023/11/05 11:07:37;;;;;;;0.10;0.10;;;;;;;;;;4978722;28;20042;-86
2023/11/05 11:10:04;;;;;;;0.25;0.25;;;;;;;;;;4994627;28;20045;-87
2023/11/05 11:12:31;;;;;;;0.10;0.10;;;;;;;;;;4962408;28;20038;-90
2023/11/05 11:14:57;;;;;;;0.10;0.10;;;;;;;;;;4963944;28;20108;-91
2023/11/05 11:17:28;;;;;;;0.10;0.10;;;;;;;;;;4963070;28;20044;-90
2023/11/05 11:19:55;;;;;;;0.10;0.10;;;;;;;;;;4962072;28;20038;-90
2023/11/05 11:22:24;;;;;;;0.10;0.10;;;;;;;;;;4979081;28;20053;-90
2023/11/05 11:24:50;;;;;;;0.10;0.10;;;;;;;;;;4978664;28;20042;-91
2023/11/05 11:27:16;;;;;;;0.20;0.20;;;;;;;;;;4978360;28;20546;-88
2023/11/05 11:29:42;;;;;;;0.10;0.10;;;;;;;;;;4978425;28;20033;-88
2023/11/05 11:32:09;;;;;;;0.10;0.10;;;;;;;;;;4978402;28;20140;-88
2023/11/05 11:34:35;;;;;;;0.10;0.10;;;;;;;;;;4978723;28;20377;-89
2023/11/05 11:37:03;;;;;;;0.10;0.10;;;;;;;;;;4994604;28;20577;-87
2023/11/05 11:39:29;;;;;;;0.10;0.10;;;;;;;;;;4994387;28;20052;-88
2023/11/05 11:41:55;;;;;;;0.10;0.10;;;;;;;;;;4994669;28;20068;-88
2023/11/05 11:44:21;;;;;;;0.10;0.10;;;;;;;;;;4978353;28;20048;-88
2023/11/05 11:46:50;;;;;;;0.10;0.10;;;;;;;;;;4978604;28;20396;-88
2023/11/05 11:49:16;;;;;;;0.10;0.10;;;;;;;;;;4994397;28;20042;-88
2023/11/05 11:51:42;;;;;;;0.52;0.52;;;;;;;;;;4978257;28;20525;-86
2023/11/05 11:54:11;;;;;;;0.10;0.10;;;;;;;;;;4978556;28;20444;-91
2023/11/05 11:56:40;;;;;;;0.10;0.10;;;;;;;;;;4978882;28;20037;-87
2023/11/05 11:59:07;;;;;;;0.10;0.10;;;;;;;;;;4978171;28;20121;-86
2023/11/05 12:01:33;;;;;;;0.10;0.10;;;;;;;;;;4978520;28;20393;-87
2023/11/05 12:03:59;;;;;;;0.10;0.10;;;;;;;;;;4978385;28;20461;-86
2023/11/05 12:06:27;;;;;;;0.20;0.20;;;;;;;;;;5001244;28;20041;-86
2023/11/05 12:08:54;;;;;;;0.10;0.10;;;;;;;;;;4981637;28;20041;-86
2023/11/05 12:11:20;;;;;;;0.10;0.10;;;;;;;;;;4997595;28;20041;-87
2023/11/05 12:13:46;;;;;;;0.20;0.20;;;;;;;;;;4997642;28;20042;-87
2023/11/05 12:16:13;;;;;;;0.70;0.70;;;;;;;;;;4997416;28;20510;-86
2023/11/05 12:18:39;;;;;;;0.38;0.38;;;;;;;;;;5014077;28;20451;-86
2023/11/05 12:21:09;;;;;;;0.20;0.20;;;;;;;;;;5013959;28;20515;-86
2023/11/05 12:23:36;;;;;;;0.10;0.10;;;;;;;;;;4997327;28;20397;-86
2023/11/05 12:26:02;;;;;;;0.10;0.10;;;;;;;;;;5013703;28;20048;-88
2023/11/05 12:28:29;;;;;;;0.20;0.20;;;;;;;;;;4997789;28;20053;-91
2023/11/05 12:31:01;;;;;;;0.10;0.10;;;;;;;;;;4998136;28;20094;-87
2023/11/05 12:33:27;;;;;;;0.10;0.10;;;;;;;;;;5001187;28;20037;-86
2023/11/05 12:35:55;;;;;;;0.10;0.10;;;;;;;;;;5017074;28;20129;-86
2023/11/05 12:38:22;;;;;;;0.10;0.10;;;;;;;;;;5001108;28;20092;-86
2023/11/05 12:40:48;;;;;;;0.40;0.40;;;;;;;;;;5017089;28;20053;-87
2023/11/05 12:43:14;;;;;;;0.35;0.35;;;;;;;;;;5017205;28;20037;-87
2023/11/05 12:45:40;;;;;;;0.10;0.10;;;;;;;;;;5000973;28;20064;-87
2023/11/05 12:48:06;;;;;;;0.10;0.10;;;;;;;;;;5000672;28;20037;-87
2023/11/05 12:50:32;;;;;;;0.10;0.10;;;;;;;;;;5000399;28;20046;-87
2023/11/05 12:52:58;;;;;;;0.10;0.10;;;;;;;;;;5000845;28;20033;-84
2023/11/05 12:55:24;;;;;;;0.10;0.10;;;;;;;;;;5000928;28;20043;-87
2023/11/05 12:57:50;;;;;;;0.13;0.13;;;;;;;;;;5016766;28;20096;-87
2023/11/05 13:00:18;;;;;;;0.10;0.10;;;;;;;;;;4984312;28;20430;-87
2023/11/05 13:02:44;;;;;;;0.10;0.10;;;;;;;;;;5016898;28;20045;-87
2023/11/05 13:05:10;;;;;;;0.10;0.10;;;;;;;;;;5000242;28;20044;-86
2023/11/05 13:07:36;;;;;;;0.10;0.10;;;;;;;;;;5000682;28;20033;-87
2023/11/05 13:10:06;;;;;;;0.10;0.10;;;;;;;;;;4984507;28;20120;-87
2023/11/05 13:12:34;;;;;;;0.10;0.10;;;;;;;;;;5000717;28;20449;-87
2023/11/05 13:15:09;;;;;;;0.13;0.13;;;;;;;;;;5016430;28;20095;-87
2023/11/05 13:17:35;;;;;;;0.10;0.10;;;;;;;;;;5001505;28;20540;-87
2023/11/05 13:20:01;;;;;;;0.10;0.10;;;;;;;;;;5000195;28;20080;-87
2023/11/05 13:22:27;;;;;;;0.10;0.10;;;;;;;;;;4984234;28;20053;-87
2023/11/05 13:24:53;;;;;;;0.20;0.20;;;;;;;;;;5000165;28;20451;-87
2023/11/05 13:27:19;;;;;;;0.10;0.10;;;;;;;;;;4983786;28;20042;-87
2023/11/05 13:29:46;;;;;;;0.10;0.10;;;;;;;;;;5000107;28;20068;-87
2023/11/05 13:32:12;;;;;;;0.10;0.10;;;;;;;;;;4999845;28;20046;-87
2023/11/05 13:34:38;;;;;;;0.10;0.10;;;;;;;;;;4999909;28;20045;-87
2023/11/05 13:37:04;;;;;;;0.28;0.28;;;;;;;;;;4983695;28;20400;-90
2023/11/05 13:39:30;;;;;;;0.20;0.20;;;;;;;;;;4983761;28;20041;-89
2023/11/05 13:41:57;;;;;;;0.10;0.10;;;;;;;;;;4983625;28;20045;-89
2023/11/05 13:44:23;;;;;;;0.20;0.20;;;;;;;;;;4999210;28;20053;-87
2023/11/05 13:46:50;;;;;;;0.20;0.20;;;;;;;;;;5015774;28;20422;-87
2023/11/05 13:49:16;;;;;;;0.10;0.10;;;;;;;;;;4999789;28;20045;-87
2023/11/05 13:51:42;;;;;;;0.30;0.30;;;;;;;;;;5015748;28;20524;-87
2023/11/05 13:54:08;;;;;;;0.10;0.10;;;;;;;;;;5015983;28;20103;-87
2023/11/05 13:56:34;;;;;;;0.10;0.10;;;;;;;;;;4999814;28;20041;-86
2023/11/05 13:59:00;;;;;;;0.10;0.10;;;;;;;;;;4999625;28;20060;-87
2023/11/05 14:01:28;;;;;;;0.47;0.40;;;;;;;;;;4999278;28;20505;-87
2023/11/05 14:03:55;;;;;;;0.10;0.10;;;;;;;;;;5015570;28;20063;-87
2023/11/05 14:06:21;;;;;;;0.17;0.17;;;;;;;;;;4999245;28;20044;-87
2023/11/05 14:08:47;;;;;;;0.10;0.10;;;;;;;;;;4999442;28;20128;-89
2023/11/05 14:11:12;;;;;;;0.10;0.10;;;;;;;;;;4999170;28;20041;-87
2023/11/05 14:13:38;;;;;;;0.10;0.10;;;;;;;;;;4998978;28;20140;-87
2023/11/05 14:16:05;;;;;;;0.10;0.10;;;;;;;;;;4982764;28;20053;-87
2023/11/05 14:18:30;;;;;;;0.13;0.13;;;;;;;;;;4999100;28;20515;-89
2023/11/05 14:20:57;;;;;;;0.10;0.10;;;;;;;;;;5015406;28;20045;-90
2023/11/05 14:23:22;;;;;;;0.10;0.10;;;;;;;;;;4999365;28;20052;-90
2023/11/05 14:25:49;;;;;;;0.10;0.10;;;;;;;;;;4999725;28;20492;-91
2023/11/05 14:28:14;;;;;;;0.10;0.10;;;;;;;;;;4998846;28;20052;-89
2023/11/05 14:30:40;;;;;;;0.10;0.10;;;;;;;;;;4998942;28;20041;-89
2023/11/05 14:33:06;;;;;;;0.10;0.10;;;;;;;;;;4982661;28;20465;-89
2023/11/05 14:35:33;;;;;;;0.13;0.13;;;;;;;;;;4999036;28;20033;-89
2023/11/05 14:37:59;;;;;;;0.10;0.10;;;;;;;;;;5015253;28;20075;-89